Time;durP1;ratioP1;P1;durP2;ratioP2;P2;SDS_P1;SDS_P2;PMS_P1;PMS_P2;Temp;Humidity;BMP_temperature;BMP_pressure;BME280_temperature;BME280_humidity;BME280_pressure;Samples;Min_cycle;Max_cycle;Signal;HPM_P1;HPM_P2
2022/12/01 00:01:19;;;;;;;;;;;;;;;;;;6224102;22;19923;-89
2022/12/01 00:03:45;;;;;;;;;;;;;;;;;;6184316;23;20263;-89
2022/12/01 00:06:11;;;;;;;;;;;;;;;;;;6191142;23;19926;-89
2022/12/01 00:08:37;;;;;;;;;;;;;;;;;;6192894;23;19920;-89
2022/12/01 00:11:03;;;;;;;;;;;;;;;;;;6199948;23;19926;-89
2022/12/01 00:13:29;;;;;;;;;;;;;;;;;;6194112;23;19924;-89
2022/12/01 00:15:55;;;;;;;;;;;;;;;;;;6197317;23;19997;-89
2022/12/01 00:18:21;;;;;;;;;;;;;;;;;;6197525;23;19999;-89
2022/12/01 00:20:53;;;;;;;;;;;;;;;;;;6196805;23;19920;-90
2022/12/01 00:23:19;;;;;;;;;;;;;;;;;;6195916;23;20352;-89
2022/12/01 00:25:45;;;;;;;;;;;;;;;;;;6188172;23;20188;-90
2022/12/01 00:28:11;;;;;;;;;;;;;;;;;;6190243;23;20082;-89
2022/12/01 00:30:37;;;;;;;;;;;;;;;;;;6191759;23;19916;-89
2022/12/01 00:33:03;;;;;;;;;;;;;;;;;;6195567;23;19919;-89
2022/12/01 00:35:29;;;;;;;;;;;;;;;;;;6196575;23;19958;-89
2022/12/01 00:37:55;;;;;;;;;;;;;;;;;;6198795;23;19958;-90
2022/12/01 00:40:21;;;;;;;;;;;;;;;;;;6194852;23;19986;-90
2022/12/01 00:42:47;;;;;;;;;;;;;;;;;;6194126;23;20022;-89
2022/12/01 00:45:13;;;;;;;;;;;;;;;;;;6196804;23;19968;-89
2022/12/01 00:47:39;;;;;;;;;;;;;;;;;;6198212;23;19924;-90
2022/12/01 00:50:05;;;;;;;;;;;;;;;;;;6197350;23;19930;-90
2022/12/01 00:52:30;;;;;;;;;;;;;;;;;;6191814;23;19920;-90
2022/12/01 00:54:56;;;;;;;;;;;;;;;;;;6196044;23;19982;-90
2022/12/01 00:57:22;;;;;;;;;;;;;;;;;;6193850;23;19926;-90
2022/12/01 00:59:48;;;;;;;;;;;;;;;;;;6191861;23;20727;-89
2022/12/01 01:02:14;;;;;;;;;;;;;;;;;;6198446;23;20328;-90
2022/12/01 01:04:40;;;;;;;;;;;;;;;;;;6217289;23;20025;-90
2022/12/01 01:07:06;;;;;;;;;;;;;;;;;;6221206;23;20014;-90
2022/12/01 01:09:32;;;;;;;;;;;;;;;;;;6219420;23;19920;-90
2022/12/01 01:11:58;;;;;;;;;;;;;;;;;;6219805;23;20334;-90
2022/12/01 01:14:24;;;;;;;;;;;;;;;;;;6221698;23;19925;-90
2022/12/01 01:16:50;;;;;;;;;;;;;;;;;;6218625;23;20292;-90
2022/12/01 01:19:16;;;;;;;;;;;;;;;;;;6222862;23;19994;-90
2022/12/01 01:21:42;;;;;;;;;;;;;;;;;;6221665;23;19935;-90
2022/12/01 01:24:08;;;;;;;;;;;;;;;;;;6223314;23;19933;-90
2022/12/01 01:26:35;;;;;;;;;;;;;;;;;;6221511;23;19919;-90
2022/12/01 01:29:01;;;;;;;;;;;;;;;;;;6223654;23;20401;-90
2022/12/01 01:31:27;;;;;;;;;;;;;;;;;;6221712;23;19943;-90
2022/12/01 01:33:53;;;;;;;;;;;;;;;;;;6222943;23;19919;-90
2022/12/01 01:36:19;;;;;;;;;;;;;;;;;;6219426;23;20335;-89
2022/12/01 01:38:45;;;;;;;;;;;;;;;;;;6219003;23;19954;-89
2022/12/01 01:41:11;;;;;;;;;;;;;;;;;;6226655;23;19920;-89
2022/12/01 01:43:37;;;;;;;;;;;;;;;;;;6222911;23;19919;-89
2022/12/01 01:46:03;;;;;;;;;;;;;;;;;;6226136;23;20002;-88
2022/12/01 01:48:29;;;;;;;;;;;;;;;;;;6223882;23;20276;-88
2022/12/01 01:50:55;;;;;;;;;;;;;;;;;;6226056;23;19920;-88
2022/12/01 01:53:21;;;;;;;;;;;;;;;;;;6225054;23;20495;-88
2022/12/01 01:55:47;;;;;;;;;;;;;;;;;;6219697;22;19923;-88
2022/12/01 01:58:12;;;;;;;;;;;;;;;;;;6221127;23;19951;-88
2022/12/01 02:00:41;;;;;;;;;;;;;;;;;;6218541;23;20293;-89
2022/12/01 02:03:07;;;;;;;;;;;;;;;;;;6218953;23;19990;-89
2022/12/01 02:05:33;;;;;;;;;;;;;;;;;;6216111;23;19998;-89
2022/12/01 02:07:59;;;;;;;;;;;;;;;;;;6220850;23;19932;-88
2022/12/01 02:10:28;;;;;;;;;;;;;;;;;;6220325;23;19925;-89
2022/12/01 02:12:54;;;;;;;;;;;;;;;;;;6222179;23;20394;-89
2022/12/01 02:15:20;;;;;;;;;;;;;;;;;;6220776;23;19924;-90
2022/12/01 02:17:46;;;;;;;;;;;;;;;;;;6218016;23;20266;-88
2022/12/01 02:20:12;;;;;;;;;;;;;;;;;;6220418;23;19994;-88
2022/12/01 02:22:38;;;;;;;;;;;;;;;;;;6219235;23;19946;-88
2022/12/01 02:25:04;;;;;;;;;;;;;;;;;;6220251;23;19964;-88
2022/12/01 02:27:30;;;;;;;;;;;;;;;;;;6221241;23;19963;-88
2022/12/01 02:29:56;;;;;;;;;;;;;;;;;;6219165;23;20401;-88
2022/12/01 02:32:22;;;;;;;;;;;;;;;;;;6220502;23;19930;-88
2022/12/01 02:34:48;;;;;;;;;;;;;;;;;;6217834;23;20122;-89
2022/12/01 02:37:14;;;;;;;;;;;;;;;;;;6222574;23;19947;-88
2022/12/01 02:39:40;;;;;;;;;;;;;;;;;;6217160;23;19927;-89
2022/12/01 02:42:06;;;;;;;;;;;;;;;;;;6221488;23;20003;-88
2022/12/01 02:44:32;;;;;;;;;;;;;;;;;;6217651;23;19919;-88
2022/12/01 02:46:58;;;;;;;;;;;;;;;;;;6218264;23;19923;-88
2022/12/01 02:49:24;;;;;;;;;;;;;;;;;;6218895;23;19926;-89
2022/12/01 02:51:50;;;;;;;;;;;;;;;;;;6218814;23;19955;-88
2022/12/01 02:54:16;;;;;;;;;;;;;;;;;;6221656;22;19941;-89
2022/12/01 02:56:42;;;;;;;;;;;;;;;;;;6219117;23;19954;-89
2022/12/01 02:59:08;;;;;;;;;;;;;;;;;;6222512;23;19982;-89
2022/12/01 03:01:36;;;;;;;;;;;;;;;;;;6217552;23;19990;-89
2022/12/01 03:04:02;;;;;;;;;;;;;;;;;;6195815;23;20006;-89
2022/12/01 03:06:28;;;;;;;;;;;;;;;;;;6194354;23;19998;-88
2022/12/01 03:08:54;;;;;;;;;;;;;;;;;;6193494;23;20014;-89
2022/12/01 03:11:25;;;;;;;;;;;;;;;;;;6194257;23;19926;-88
2022/12/01 03:13:51;;;;;;;;;;;;;;;;;;6171050;23;19926;-89
2022/12/01 03:16:17;;;;;;;;;;;;;;;;;;6170660;23;20248;-89
2022/12/01 03:18:43;;;;;;;;;;;;;;;;;;6168909;23;20241;-88
2022/12/01 03:21:09;;;;;;;;;;;;;;;;;;6195698;23;19920;-89
2022/12/01 03:23:35;;;;;;;;;;;;;;;;;;6168839;23;19923;-88
2022/12/01 03:26:01;;;;;;;;;;;;;;;;;;6198025;23;19920;-88
2022/12/01 03:28:27;;;;;;;;;;;;;;;;;;6167698;23;19923;-88
2022/12/01 03:30:53;;;;;;;;;;;;;;;;;;6170095;23;19927;-89
2022/12/01 03:33:19;;;;;;;;;;;;;;;;;;6170657;23;20397;-89
2022/12/01 03:35:45;;;;;;;;;;;;;;;;;;6166174;23;20344;-89
2022/12/01 03:38:11;;;;;;;;;;;;;;;;;;6169309;23;20331;-89
2022/12/01 03:40:37;;;;;;;;;;;;;;;;;;6191909;23;20333;-89
2022/12/01 03:43:03;;;;;;;;;;;;;;;;;;6195463;23;20391;-89
2022/12/01 03:45:29;;;;;;;;;;;;;;;;;;6192727;23;20408;-88
2022/12/01 03:47:55;;;;;;;;;;;;;;;;;;6196850;23;19919;-89
2022/12/01 03:50:21;;;;;;;;;;;;;;;;;;6198225;23;19927;-88
2022/12/01 03:52:47;;;;;;;;;;;;;;;;;;6195502;23;19921;-89
2022/12/01 03:55:13;;;;;;;;;;;;;;;;;;6172223;23;19920;-89
2022/12/01 03:57:39;;;;;;;;;;;;;;;;;;6169013;23;19923;-88
2022/12/01 04:00:05;;;;;;;;;;;;;;;;;;6198202;23;19920;-89
2022/12/01 04:02:31;;;;;;;;;;;;;;;;;;6177067;23;19924;-89
2022/12/01 04:04:57;;;;;;;;;;;;;;;;;;6221229;23;20293;-89
2022/12/01 04:07:23;;;;;;;;;;;;;;;;;;6221197;23;19920;-89
2022/12/01 04:09:49;;;;;;;;;;;;;;;;;;6216533;23;19931;-88
2022/12/01 04:12:33;;;;;;;;;;;;;;;;;;6220924;23;20016;-89
2022/12/01 04:14:59;;;;;;;;;;;;;;;;;;6219765;23;20367;-88
2022/12/01 04:17:29;;;;;;;;;;;;;;;;;;6220907;23;19920;-88
2022/12/01 04:19:54;;;;;;;;;;;;;;;;;;6218714;23;19958;-88
2022/12/01 04:22:20;;;;;;;;;;;;;;;;;;6220892;23;20351;-89
2022/12/01 04:24:46;;;;;;;;;;;;;;;;;;6218996;23;20309;-89
2022/12/01 04:27:12;;;;;;;;;;;;;;;;;;6219771;23;20426;-89
2022/12/01 04:29:38;;;;;;;;;;;;;;;;;;6218332;23;20368;-89
2022/12/01 04:32:04;;;;;;;;;;;;;;;;;;6218855;23;19919;-89
2022/12/01 04:34:30;;;;;;;;;;;;;;;;;;6220304;23;19920;-89
2022/12/01 04:36:56;;;;;;;;;;;;;;;;;;6223781;23;19916;-89
2022/12/01 04:39:22;;;;;;;;;;;;;;;;;;6226708;23;19927;-88
2022/12/01 04:41:48;;;;;;;;;;;;;;;;;;6224071;23;20292;-89
2022/12/01 04:44:14;;;;;;;;;;;;;;;;;;6228172;23;19923;-89
2022/12/01 04:46:40;;;;;;;;;;;;;;;;;;6222547;23;19973;-89
2022/12/01 04:49:06;;;;;;;;;;;;;;;;;;6227328;23;19934;-89
2022/12/01 04:51:32;;;;;;;;;;;;;;;;;;6226220;23;19919;-89
2022/12/01 04:53:58;;;;;;;;;;;;;;;;;;6228896;22;19954;-89
2022/12/01 04:56:24;;;;;;;;;;;;;;;;;;6225192;23;19951;-89
2022/12/01 04:58:50;;;;;;;;;;;;;;;;;;6225193;23;20474;-89
2022/12/01 05:01:16;;;;;;;;;;;;;;;;;;6224300;23;19947;-89
2022/12/01 05:03:42;;;;;;;;;;;;;;;;;;6223929;23;19966;-89
2022/12/01 05:06:08;;;;;;;;;;;;;;;;;;6230019;23;19982;-89
2022/12/01 05:08:34;;;;;;;;;;;;;;;;;;6223055;23;19919;-88
2022/12/01 05:11:00;;;;;;;;;;;;;;;;;;6227483;23;20075;-89
2022/12/01 05:13:29;;;;;;;;;;;;;;;;;;6227937;23;19920;-89
2022/12/01 05:15:55;;;;;;;;;;;;;;;;;;6221484;23;19919;-89
2022/12/01 05:18:21;;;;;;;;;;;;;;;;;;6221980;23;19919;-89
2022/12/01 05:20:56;;;;;;;;;;;;;;;;;;6221167;23;20071;-89
2022/12/01 05:23:22;;;;;;;;;;;;;;;;;;6221299;23;20002;-89
2022/12/01 05:25:48;;;;;;;;;;;;;;;;;;6218815;23;19991;-88
2022/12/01 05:28:14;;;;;;;;;;;;;;;;;;6223933;23;20408;-88
2022/12/01 05:30:40;;;;;;;;;;;;;;;;;;6222163;23;19922;-89
2022/12/01 05:33:06;;;;;;;;;;;;;;;;;;6224163;23;19919;-88
2022/12/01 05:35:32;;;;;;;;;;;;;;;;;;6221472;23;19919;-89
2022/12/01 05:37:58;;;;;;;;;;;;;;;;;;6224018;23;19920;-88
2022/12/01 05:40:23;;;;;;;;;;;;;;;;;;6220589;23;19947;-89
2022/12/01 05:42:49;;;;;;;;;;;;;;;;;;6219449;23;19926;-88
2022/12/01 05:45:15;;;;;;;;;;;;;;;;;;6220913;23;20621;-89
2022/12/01 05:47:41;;;;;;;;;;;;;;;;;;6219176;23;19920;-88
2022/12/01 05:50:07;;;;;;;;;;;;;;;;;;6223027;23;19919;-89
2022/12/01 05:52:34;;;;;;;;;;;;;;;;;;6218209;23;19962;-88
2022/12/01 05:55:00;;;;;;;;;;;;;;;;;;6222695;22;19977;-89
2022/12/01 05:57:26;;;;;;;;;;;;;;;;;;6222668;23;20411;-88
2022/12/01 05:59:52;;;;;;;;;;;;;;;;;;6223962;23;19942;-88
2022/12/01 06:02:18;;;;;;;;;;;;;;;;;;6224979;22;20026;-89
2022/12/01 06:04:44;;;;;;;;;;;;;;;;;;6228087;22;19919;-89
2022/12/01 06:07:10;;;;;;;;;;;;;;;;;;6230428;22;19919;-88
2022/12/01 06:09:36;;;;;;;;;;;;;;;;;;6227544;22;20021;-88
2022/12/01 06:12:02;;;;;;;;;;;;;;;;;;6228052;22;19919;-88
2022/12/01 06:14:28;;;;;;;;;;;;;;;;;;6225582;22;19919;-89
2022/12/01 06:16:53;;;;;;;;;;;;;;;;;;6227821;22;19999;-88
2022/12/01 06:19:19;;;;;;;;;;;;;;;;;;6232116;22;19922;-88
2022/12/01 06:21:45;;;;;;;;;;;;;;;;;;6228145;22;19923;-88
2022/12/01 06:24:11;;;;;;;;;;;;;;;;;;6233085;22;19925;-87
2022/12/01 06:26:37;;;;;;;;;;;;;;;;;;6233284;22;19923;-87
2022/12/01 06:29:03;;;;;;;;;;;;;;;;;;6231639;22;19989;-86
2022/12/01 06:31:29;;;;;;;;;;;;;;;;;;6228235;22;19927;-88
2022/12/01 06:33:55;;;;;;;;;;;;;;;;;;6235251;22;19919;-88
2022/12/01 06:36:21;;;;;;;;;;;;;;;;;;6237042;22;19919;-88
2022/12/01 06:38:47;;;;;;;;;;;;;;;;;;6230893;22;19998;-88
2022/12/01 06:41:13;;;;;;;;;;;;;;;;;;6234826;22;20394;-89
2022/12/01 06:43:39;;;;;;;;;;;;;;;;;;6233457;22;20356;-90
2022/12/01 06:46:05;;;;;;;;;;;;;;;;;;6236715;22;20245;-89
2022/12/01 06:48:31;;;;;;;;;;;;;;;;;;6233115;22;20383;-89
2022/12/01 06:50:57;;;;;;;;;;;;;;;;;;6234336;22;19926;-89
2022/12/01 06:53:23;;;;;;;;;;;;;;;;;;6232942;22;19919;-89
2022/12/01 06:55:49;;;;;;;;;;;;;;;;;;6232107;22;19962;-89
2022/12/01 06:58:15;;;;;;;;;;;;;;;;;;6236045;22;19920;-89
2022/12/01 07:00:41;;;;;;;;;;;;;;;;;;6233731;22;19919;-89
2022/12/01 07:03:07;;;;;;;;;;;;;;;;;;6234824;22;19930;-89
2022/12/01 07:05:33;;;;;;;;;;;;;;;;;;6230275;22;20002;-89
2022/12/01 07:07:59;;;;;;;;;;;;;;;;;;6235010;22;19929;-89
2022/12/01 07:10:28;;;;;;;;;;;;;;;;;;6235745;22;19926;-89
2022/12/01 07:12:54;;;;;;;;;;;;;;;;;;6234111;22;20342;-89
2022/12/01 07:18:13;;;;;;;;;;;;;;;;;;6238931;22;19922;-89
2022/12/01 07:20:39;;;;;;;;;;;;;;;;;;6238100;22;19919;-90
2022/12/01 07:23:05;;;;;;;;;;;;;;;;;;6239417;22;19926;-89
2022/12/01 07:25:31;;;;;;;;;;;;;;;;;;6237325;22;20251;-89
2022/12/01 07:27:57;;;;;;;;;;;;;;;;;;6238998;22;19919;-89
2022/12/01 07:30:23;;;;;;;;;;;;;;;;;;6240433;22;19919;-90
2022/12/01 07:32:49;;;;;;;;;;;;;;;;;;6237922;22;19994;-89
2022/12/01 07:35:15;;;;;;;;;;;;;;;;;;6240295;22;19919;-89
2022/12/01 07:37:41;;;;;;;;;;;;;;;;;;6237289;22;19986;-89
2022/12/01 07:40:06;;;;;;;;;;;;;;;;;;6235157;22;20391;-89
2022/12/01 07:42:32;;;;;;;;;;;;;;;;;;6235241;22;20225;-89
2022/12/01 07:44:58;;;;;;;;;;;;;;;;;;6240964;22;19923;-89
2022/12/01 07:47:24;;;;;;;;;;;;;;;;;;6238010;22;19998;-90
2022/12/01 07:49:50;;;;;;;;;;;;;;;;;;6233963;22;20233;-90
2022/12/01 07:52:16;;;;;;;;;;;;;;;;;;6238758;22;20243;-90
2022/12/01 07:54:42;;;;;;;;;;;;;;;;;;6233344;22;19922;-90
2022/12/01 07:57:08;;;;;;;;;;;;;;;;;;6239271;22;19923;-90
2022/12/01 07:59:34;;;;;;;;;;;;;;;;;;6236454;22;19919;-90
2022/12/01 08:02:00;;;;;;;;;;;;;;;;;;6238250;22;19946;-90
2022/12/01 08:04:26;;;;;;;;;;;;;;;;;;6239061;22;19923;-89
2022/12/01 08:06:52;;;;;;;;;;;;;;;;;;6238647;22;19925;-90
2022/12/01 08:09:18;;;;;;;;;;;;;;;;;;6240298;22;19915;-90
2022/12/01 08:11:44;;;;;;;;;;;;;;;;;;6239044;22;20388;-90
2022/12/01 08:14:10;;;;;;;;;;;;;;;;;;6243044;22;20248;-90
2022/12/01 08:16:36;;;;;;;;;;;;;;;;;;6237118;22;20335;-90
2022/12/01 08:19:02;;;;;;;;;;;;;;;;;;6242220;22;20318;-89
2022/12/01 08:21:28;;;;;;;;;;;;;;;;;;6240348;22;19923;-88
2022/12/01 08:23:53;;;;;;;;;;;;;;;;;;6242539;22;20085;-89
2022/12/01 08:26:19;;;;;;;;;;;;;;;;;;6241697;22;20315;-89
2022/12/01 08:28:45;;;;;;;;;;;;;;;;;;6238758;22;19923;-90
2022/12/01 08:31:11;;;;;;;;;;;;;;;;;;6243025;22;19923;-90
2022/12/01 08:33:37;;;;;;;;;;;;;;;;;;6238384;22;20371;-90
2022/12/01 08:36:03;;;;;;;;;;;;;;;;;;6239515;22;19926;-90
2022/12/01 08:38:29;;;;;;;;;;;;;;;;;;6239434;22;19919;-90
2022/12/01 08:40:55;;;;;;;;;;;;;;;;;;6242591;22;19926;-90
2022/12/01 08:43:21;;;;;;;;;;;;;;;;;;6241343;22;19923;-90
2022/12/01 08:45:47;;;;;;;;;;;;;;;;;;6239230;22;19926;-90
2022/12/01 08:48:13;;;;;;;;;;;;;;;;;;6241495;22;20348;-91
2022/12/01 08:50:39;;;;;;;;;;;;;;;;;;6239290;22;19923;-90
2022/12/01 08:53:05;;;;;;;;;;;;;;;;;;6242711;22;20009;-90
2022/12/01 08:55:31;;;;;;;;;;;;;;;;;;6238384;22;19919;-91
2022/12/01 08:57:57;;;;;;;;;;;;;;;;;;6241285;22;19926;-91
2022/12/01 09:00:23;;;;;;;;;;;;;;;;;;6239485;22;19919;-90
2022/12/01 09:02:49;;;;;;;;;;;;;;;;;;6240060;22;19931;-90
2022/12/01 09:05:15;;;;;;;;;;;;;;;;;;6241450;22;19930;-90
2022/12/01 09:07:41;;;;;;;;;;;;;;;;;;6235371;22;19925;-90
2022/12/01 09:10:07;;;;;;;;;;;;;;;;;;6238887;22;19919;-90
2022/12/01 09:12:33;;;;;;;;;;;;;;;;;;6239117;22;19953;-90
2022/12/01 09:14:59;;;;;;;;;;;;;;;;;;6240095;22;19920;-90
2022/12/01 09:17:28;;;;;;;;;;;;;;;;;;6241602;22;19961;-90
2022/12/01 09:19:54;;;;;;;;;;;;;;;;;;6239038;22;20320;-89
2022/12/01 09:22:20;;;;;;;;;;;;;;;;;;6238722;22;19926;-90
2022/12/01 09:24:46;;;;;;;;;;;;;;;;;;6232984;22;20876;-89
2022/12/01 09:27:12;;;;;;;;;;;;;;;;;;6239680;22;20230;-90
2022/12/01 09:29:38;;;;;;;;;;;;;;;;;;6236538;22;19947;-90
2022/12/01 09:32:04;;;;;;;;;;;;;;;;;;6238334;22;19919;-90
2022/12/01 09:34:30;;;;;;;;;;;;;;;;;;6236939;22;19926;-89
2022/12/01 09:36:57;;;;;;;;;;;;;;;;;;6238694;22;19926;-90
2022/12/01 09:39:23;;;;;;;;;;;;;;;;;;6240153;22;19938;-90
2022/12/01 09:41:49;;;;;;;;;;;;;;;;;;6235423;22;19930;-90
2022/12/01 09:44:19;;;;;;;;;;;;;;;;;;6237991;22;19953;-90
2022/12/01 09:46:45;;;;;;;;;;;;;;;;;;6234474;22;19920;-91
2022/12/01 09:49:11;;;;;;;;;;;;;;;;;;6238576;22;19925;-90
2022/12/01 09:51:37;;;;;;;;;;;;;;;;;;6235412;22;20332;-90
2022/12/01 09:54:03;;;;;;;;;;;;;;;;;;6237135;22;20248;-90
2022/12/01 09:56:29;;;;;;;;;;;;;;;;;;6235499;22;19965;-90
2022/12/01 09:58:57;;;;;;;;;;;;;;;;;;6239568;22;20103;-90
2022/12/01 10:01:23;;;;;;;;;;;;;;;;;;6235768;22;20244;-90
2022/12/01 10:03:49;;;;;;;;;;;;;;;;;;6235638;22;19927;-89
2022/12/01 10:06:15;;;;;;;;;;;;;;;;;;6238399;22;20390;-90
2022/12/01 10:08:42;;;;;;;;;;;;;;;;;;6236125;22;19999;-90
2022/12/01 10:11:08;;;;;;;;;;;;;;;;;;6236763;22;19942;-90
2022/12/01 10:13:33;;;;;;;;;;;;;;;;;;6236079;22;19919;-90
2022/12/01 10:15:59;;;;;;;;;;;;;;;;;;6237341;22;20356;-90
2022/12/01 10:18:29;;;;;;;;;;;;;;;;;;6239675;22;20256;-90
2022/12/01 10:20:55;;;;;;;;;;;;;;;;;;6238958;22;19919;-90
2022/12/01 10:23:21;;;;;;;;;;;;;;;;;;6238038;22;19919;-90
2022/12/01 10:25:48;;;;;;;;;;;;;;;;;;6236636;22;19919;-90
2022/12/01 10:28:14;;;;;;;;;;;;;;;;;;6239068;22;19915;-90
2022/12/01 10:30:40;;;;;;;;;;;;;;;;;;6235261;22;20036;-91
2022/12/01 10:33:06;;;;;;;;;;;;;;;;;;6237816;22;19926;-90
2022/12/01 10:35:37;;;;;;;;;;;;;;;;;;6235383;22;19919;-90
2022/12/01 10:38:03;;;;;;;;;;;;;;;;;;6238353;22;19953;-91
2022/12/01 10:40:34;;;;;;;;;;;;;;;;;;6233605;22;19922;-90
2022/12/01 10:42:59;;;;;;;;;;;;;;;;;;6238152;22;19937;-90
2022/12/01 10:45:29;;;;;;;;;;;;;;;;;;6236597;22;20002;-89
2022/12/01 10:47:54;;;;;;;;;;;;;;;;;;6239048;22;20248;-90
2022/12/01 10:50:20;;;;;;;;;;;;;;;;;;6237858;22;19927;-91
2022/12/01 10:52:46;;;;;;;;;;;;;;;;;;6235406;22;20018;-91
2022/12/01 10:55:12;;;;;;;;;;;;;;;;;;6237162;22;20333;-91
2022/12/01 10:57:38;;;;;;;;;;;;;;;;;;6236241;22;20281;-91
2022/12/01 11:00:04;;;;;;;;;;;;;;;;;;6235256;22;20248;-91
2022/12/01 11:02:30;;;;;;;;;;;;;;;;;;6235063;22;20395;-91
2022/12/01 11:04:56;;;;;;;;;;;;;;;;;;6239127;22;19930;-91
2022/12/01 11:07:22;;;;;;;;;;;;;;;;;;6238077;22;19919;-91
2022/12/01 11:09:48;;;;;;;;;;;;;;;;;;6235348;22;20017;-91
2022/12/01 11:12:14;;;;;;;;;;;;;;;;;;6237492;22;19920;-91
2022/12/01 11:14:40;;;;;;;;;;;;;;;;;;6235325;22;19927;-90
2022/12/01 11:17:06;;;;;;;;;;;;;;;;;;6239276;22;19964;-91
2022/12/01 11:19:32;;;;;;;;;;;;;;;;;;6236028;22;19919;-91
2022/12/01 11:21:58;;;;;;;;;;;;;;;;;;6236431;22;19931;-91
2022/12/01 11:24:24;;;;;;;;;;;;;;;;;;6238590;22;19923;-91
2022/12/01 11:26:50;;;;;;;;;;;;;;;;;;6235777;22;19919;-91
2022/12/01 11:29:16;;;;;;;;;;;;;;;;;;6238767;22;19919;-91
2022/12/01 11:31:42;;;;;;;;;;;;;;;;;;6234313;22;19972;-91
2022/12/01 11:34:08;;;;;;;;;;;;;;;;;;6238541;22;19926;-91
2022/12/01 11:36:34;;;;;;;;;;;;;;;;;;6234900;22;19919;-91
2022/12/01 11:39:00;;;;;;;;;;;;;;;;;;6239394;22;19942;-90
2022/12/01 11:41:29;;;;;;;;;;;;;;;;;;6238115;22;19915;-92
2022/12/01 11:43:55;;;;;;;;;;;;;;;;;;6238429;22;20354;-91
2022/12/01 11:46:21;;;;;;;;;;;;;;;;;;6236979;22;19915;-91
2022/12/01 11:48:47;;;;;;;;;;;;;;;;;;6235042;22;20489;-92
2022/12/01 11:51:13;;;;;;;;;;;;;;;;;;6237427;22;20314;-91
2022/12/01 11:53:39;;;;;;;;;;;;;;;;;;6235197;22;19927;-91
2022/12/01 11:56:05;;;;;;;;;;;;;;;;;;6237541;22;19919;-91
2022/12/01 11:58:30;;;;;;;;;;;;;;;;;;6235557;22;19915;-90
2022/12/01 12:00:56;;;;;;;;;;;;;;;;;;6237364;22;19915;-91
2022/12/01 12:03:22;;;;;;;;;;;;;;;;;;6237329;22;19962;-91
2022/12/01 12:05:48;;;;;;;;;;;;;;;;;;6234316;22;19933;-91
2022/12/01 12:08:14;;;;;;;;;;;;;;;;;;6238652;22;19919;-91
2022/12/01 12:10:40;;;;;;;;;;;;;;;;;;6234989;22;20255;-91
2022/12/01 12:13:06;;;;;;;;;;;;;;;;;;6237957;22;19922;-91
2022/12/01 12:15:32;;;;;;;;;;;;;;;;;;6233083;22;19923;-91
2022/12/01 12:18:01;;;;;;;;;;;;;;;;;;6234528;22;20255;-92
2022/12/01 12:20:27;;;;;;;;;;;;;;;;;;6233642;22;19919;-90
2022/12/01 12:22:53;;;;;;;;;;;;;;;;;;6235834;22;20376;-91
2022/12/01 12:25:19;;;;;;;;;;;;;;;;;;6237375;22;19969;-91
2022/12/01 12:27:45;;;;;;;;;;;;;;;;;;6233009;22;20222;-91
2022/12/01 12:30:11;;;;;;;;;;;;;;;;;;6239057;22;19926;-91
2022/12/01 12:32:37;;;;;;;;;;;;;;;;;;6233376;22;19919;-90
2022/12/01 12:35:03;;;;;;;;;;;;;;;;;;6236993;22;19923;-91
2022/12/01 12:37:29;;;;;;;;;;;;;;;;;;6233998;22;19930;-90
2022/12/01 12:39:55;;;;;;;;;;;;;;;;;;6238043;22;19915;-90
2022/12/01 12:42:21;;;;;;;;;;;;;;;;;;6237606;22;19965;-90
2022/12/01 12:44:47;;;;;;;;;;;;;;;;;;6232943;22;19969;-90
2022/12/01 12:47:13;;;;;;;;;;;;;;;;;;6235570;22;19927;-90
2022/12/01 12:49:39;;;;;;;;;;;;;;;;;;6235427;22;19938;-90
2022/12/01 12:52:05;;;;;;;;;;;;;;;;;;6236046;22;20239;-90
2022/12/01 12:54:31;;;;;;;;;;;;;;;;;;6235712;22;19919;-89
2022/12/01 12:56:57;;;;;;;;;;;;;;;;;;6238223;22;20014;-89
2022/12/01 12:59:23;;;;;;;;;;;;;;;;;;6240364;22;20000;-89
2022/12/01 13:01:49;;;;;;;;;;;;;;;;;;6234636;22;19919;-90
2022/12/01 13:04:15;;;;;;;;;;;;;;;;;;6237245;22;19930;-89
2022/12/01 13:06:41;;;;;;;;;;;;;;;;;;6235581;22;20324;-89
2022/12/01 13:09:07;;;;;;;;;;;;;;;;;;6238366;22;19919;-90
2022/12/01 13:11:33;;;;;;;;;;;;;;;;;;6236821;22;20244;-89
2022/12/01 13:13:59;;;;;;;;;;;;;;;;;;6233800;22;19926;-89
2022/12/01 13:16:25;;;;;;;;;;;;;;;;;;6237247;22;19977;-90
2022/12/01 13:18:51;;;;;;;;;;;;;;;;;;6234497;22;19951;-88
2022/12/01 13:21:17;;;;;;;;;;;;;;;;;;6238809;22;19926;-90
2022/12/01 13:23:42;;;;;;;;;;;;;;;;;;6232721;22;19919;-90
2022/12/01 13:26:08;;;;;;;;;;;;;;;;;;6236014;22;19919;-90
2022/12/01 13:28:34;;;;;;;;;;;;;;;;;;6233005;22;19926;-89
2022/12/01 13:31:00;;;;;;;;;;;;;;;;;;6235726;22;19926;-89
2022/12/01 13:33:26;;;;;;;;;;;;;;;;;;6232771;22;19915;-90
2022/12/01 13:35:52;;;;;;;;;;;;;;;;;;6236765;22;20350;-90
2022/12/01 13:38:19;;;;;;;;;;;;;;;;;;6234398;22;19923;-90
2022/12/01 13:40:44;;;;;;;;;;;;;;;;;;6232948;22;20324;-91
2022/12/01 13:43:10;;;;;;;;;;;;;;;;;;6233479;22;19919;-90
2022/12/01 13:45:36;;;;;;;;;;;;;;;;;;6233871;22;20240;-91
2022/12/01 13:48:02;;;;;;;;;;;;;;;;;;6234538;22;19924;-90
2022/12/01 13:50:28;;;;;;;;;;;;;;;;;;6234913;22;19923;-90
2022/12/01 13:52:54;;;;;;;;;;;;;;;;;;6235590;22;19926;-91
2022/12/01 13:55:20;;;;;;;;;;;;;;;;;;6234107;22;19990;-92
2022/12/01 13:57:46;;;;;;;;;;;;;;;;;;6233767;22;20262;-91
2022/12/01 14:00:12;;;;;;;;;;;;;;;;;;6233874;22;19922;-91
2022/12/01 14:02:38;;;;;;;;;;;;;;;;;;6231432;22;20344;-90
2022/12/01 14:05:04;;;;;;;;;;;;;;;;;;6233881;22;19927;-89
2022/12/01 14:07:30;;;;;;;;;;;;;;;;;;6233648;22;19926;-90
2022/12/01 14:09:56;;;;;;;;;;;;;;;;;;6235092;22;19920;-90
2022/12/01 14:12:22;;;;;;;;;;;;;;;;;;6235417;22;19946;-90
2022/12/01 14:14:50;;;;;;;;;;;;;;;;;;6234349;22;19973;-91
2022/12/01 14:17:16;;;;;;;;;;;;;;;;;;6238275;22;19915;-91
2022/12/01 14:19:42;;;;;;;;;;;;;;;;;;6237206;22;19989;-91
2022/12/01 14:22:07;;;;;;;;;;;;;;;;;;6235440;22;19919;-91
2022/12/01 14:24:34;;;;;;;;;;;;;;;;;;6232536;22;19923;-91
2022/12/01 14:27:00;;;;;;;;;;;;;;;;;;6235522;22;19954;-91
2022/12/01 14:29:26;;;;;;;;;;;;;;;;;;6237665;22;20244;-92
2022/12/01 14:31:55;;;;;;;;;;;;;;;;;;6232134;22;19955;-91
2022/12/01 14:34:23;;;;;;;;;;;;;;;;;;6234384;22;19919;-91
2022/12/01 14:36:49;;;;;;;;;;;;;;;;;;6234526;22;19923;-91
2022/12/01 14:39:15;;;;;;;;;;;;;;;;;;6235916;22;19923;-91
2022/12/01 14:41:40;;;;;;;;;;;;;;;;;;6234560;22;19919;-91
2022/12/01 14:44:06;;;;;;;;;;;;;;;;;;6235929;22;19923;-93
2022/12/01 14:46:32;;;;;;;;;;;;;;;;;;6233939;22;20347;-94
2022/12/01 14:48:58;;;;;;;;;;;;;;;;;;6244741;22;19964;-92
2022/12/01 14:51:32;;;;;;;;;;;;;;;;;;6236719;22;20402;-92
2022/12/01 14:56:54;;;;;;;;;;;;;;;;;;6237796;22;19958;-93
2022/12/01 14:59:29;;;;;;;;;;;;;;;;;;6237113;22;19942;-92
2022/12/01 15:01:55;;;;;;;;;;;;;;;;;;6238947;22;20344;-93
2022/12/01 15:04:25;;;;;;;;;;;;;;;;;;6231644;22;19925;-96
2022/12/01 15:06:57;;;;;;;;;;;;;;;;;;6237363;22;19919;-92
2022/12/01 15:09:26;;;;;;;;;;;;;;;;;;6235675;22;20397;-92
2022/12/01 15:11:58;;;;;;;;;;;;;;;;;;6240089;22;19990;-92
2022/12/01 15:14:25;;;;;;;;;;;;;;;;;;6237902;22;19976;-92
2022/12/01 15:17:04;;;;;;;;;;;;;;;;;;6264954;22;20252;-92
2022/12/01 15:19:37;;;;;;;;;;;;;;;;;;6235878;22;19922;-92
2022/12/01 15:22:15;;;;;;;;;;;;;;;;;;6239988;22;20343;-92
2022/12/01 15:24:41;;;;;;;;;;;;;;;;;;6239074;22;19962;-92
2022/12/01 15:27:07;;;;;;;;;;;;;;;;;;6240239;22;19926;-92
2022/12/01 15:29:41;;;;;;;;;;;;;;;;;;6238392;22;19926;-92
2022/12/01 18:13:33;;;;;;;;;;;;;;;;;;6242482;22;19926;-91
2022/12/01 18:16:01;;;;;;;;;;;;;;;;;;6209652;22;19919;-91
2022/12/01 18:18:27;;;;;;;;;;;;;;;;;;6209208;22;20343;-91
2022/12/01 18:20:56;;;;;;;;;;;;;;;;;;6212396;22;20327;-91
2022/12/01 18:23:22;;;;;;;;;;;;;;;;;;6210273;22;19919;-90
2022/12/01 18:25:48;;;;;;;;;;;;;;;;;;6207591;22;19966;-91
2022/12/01 18:28:14;;;;;;;;;;;;;;;;;;6236124;22;19919;-90
2022/12/01 18:30:46;;;;;;;;;;;;;;;;;;6208880;22;19915;-91
2022/12/01 18:33:15;;;;;;;;;;;;;;;;;;6234497;22;19934;-90
2022/12/01 18:35:41;;;;;;;;;;;;;;;;;;6207335;22;20359;-90
2022/12/01 18:38:10;;;;;;;;;;;;;;;;;;6234036;22;20343;-91
2022/12/01 18:40:36;;;;;;;;;;;;;;;;;;6228778;22;19993;-90
2022/12/01 18:43:02;;;;;;;;;;;;;;;;;;6234889;22;19919;-90
2022/12/01 18:48:47;;;;;;;;;;;;;;;;;;6218329;22;19919;-91
2022/12/01 18:51:23;;;;;;;;;;;;;;;;;;;;;
2022/12/01 18:54:01;;;;;;;;;;;;;;;;;;6225896;22;20344;-90
2022/12/01 18:56:30;;;;;;;;;;;;;;;;;;6174855;23;20388;-91
2022/12/01 18:59:12;;;;;;;;;;;;;;;;;;6163107;23;20143;-90
2022/12/01 19:02:03;;;;;;;;;;;;;;;;;;6164701;23;20265;-90
2022/12/01 19:04:29;;;;;;;;;;;;;;;;;;6170808;23;19924;-90
2022/12/01 19:07:21;;;;;;;;;;;;;;;;;;6169933;23;19920;-90
2022/12/01 19:09:47;;;;;;;;;;;;;;;;;;6166796;23;19924;-91
2022/12/01 19:12:19;;;;;;;;;;;;;;;;;;6168325;23;20412;-90
2022/12/01 19:14:45;;;;;;;;;;;;;;;;;;6139039;23;19931;-90
2022/12/01 19:17:16;;;;;;;;;;;;;;;;;;6143875;23;19981;-91
2022/12/01 19:20:10;;;;;;;;;;;;;;;;;;6119426;23;19920;-91
2022/12/01 19:22:39;;;;;;;;;;;;;;;;;;6143164;23;19932;-90
2022/12/01 19:28:25;;;;;;;;;;;;;;;;;;6180592;23;19995;-90
2022/12/01 21:52:58;;;;;;;;;;;;;;;;;;6249005;22;19927;-92
2022/12/01 21:55:30;;;;;;;;;;;;;;;;;;6212047;23;19924;-92
2022/12/01 21:58:01;;;;;;;;;;;;;;;;;;6215990;23;20035;-92